createdAt,value
2018-01-17T00:00:38.627Z,2.10
2018-01-17T00:01:41.146Z,2.00
2018-01-17T00:02:43.665Z,2.00
2018-01-17T00:03:46.204Z,2.10
2018-01-17T00:04:48.726Z,2.10
2018-01-17T00:05:52.038Z,2.10
2018-01-17T00:06:54.557Z,2.00
2018-01-17T00:07:57.078Z,2.10
2018-01-17T00:08:59.598Z,2.10
2018-01-17T00:10:02.117Z,2.10
2018-01-17T00:11:04.677Z,2.10
2018-01-17T00:12:07.192Z,2.10
2018-01-17T00:13:09.705Z,2.10
2018-01-17T00:14:13.099Z,2.10
2018-01-17T00:15:16.095Z,2.10
2018-01-17T00:16:18.667Z,2.10
2018-01-17T00:17:21.293Z,2.10
2018-01-17T00:18:23.823Z,2.10
2018-01-17T00:19:27.127Z,2.10
2018-01-17T00:20:30.429Z,2.10
2018-01-17T00:21:32.969Z,2.00
2018-01-17T00:22:42.145Z,2.10
2018-01-17T00:23:44.673Z,2.10
2018-01-17T00:24:47.198Z,2.10
2018-01-17T00:25:49.716Z,2.10
2018-01-17T00:26:52.249Z,2.10
2018-01-17T00:27:55.555Z,2.10
2018-01-17T00:28:58.072Z,2.10
2018-01-17T00:30:00.602Z,2.10
2018-01-17T00:31:03.158Z,2.10
2018-01-17T00:32:05.690Z,2.10
2018-01-17T00:33:08.231Z,2.10
2018-01-17T00:34:10.752Z,2.10
2018-01-17T00:35:13.270Z,2.20
2018-01-17T00:36:16.877Z,2.10
2018-01-17T00:37:19.422Z,2.10
2018-01-17T00:38:21.960Z,2.10
2018-01-17T00:39:24.481Z,2.10
2018-01-17T00:40:27.775Z,2.20
2018-01-17T00:41:31.072Z,2.20
2018-01-17T00:42:33.619Z,2.20
2018-01-17T00:43:36.895Z,2.20
2018-01-17T00:44:39.408Z,2.20
2018-01-17T00:45:41.921Z,2.20
2018-01-17T00:46:44.445Z,2.20
2018-01-17T00:47:46.976Z,2.20
2018-01-17T00:48:50.259Z,2.20
2018-01-17T00:49:53.561Z,2.20
2018-01-17T00:50:56.091Z,2.20
2018-01-17T00:51:58.612Z,2.20
2018-01-17T00:53:01.144Z,2.20
2018-01-17T00:54:04.417Z,2.20
2018-01-17T00:55:07.695Z,2.20
2018-01-17T00:56:10.987Z,2.20
2018-01-17T00:57:14.324Z,2.20
2018-01-17T00:58:16.855Z,2.20
2018-01-17T00:59:19.373Z,2.20
2018-01-17T01:00:21.888Z,2.20
2018-01-17T01:01:24.405Z,2.20
2018-01-17T01:02:26.939Z,2.20
2018-01-17T01:03:29.440Z,2.20
2018-01-17T01:04:31.953Z,2.20
2018-01-17T01:05:34.482Z,2.20
2018-01-17T01:06:37.007Z,2.20
2018-01-17T01:07:39.541Z,2.20
2018-01-17T01:08:42.065Z,2.20
2018-01-17T01:09:44.614Z,2.20
2018-01-17T01:10:47.137Z,2.20
2018-01-17T01:11:49.652Z,2.20
2018-01-17T01:12:52.167Z,2.20
2018-01-17T01:13:54.743Z,2.20
2018-01-17T01:14:57.261Z,2.20
2018-01-17T01:15:59.778Z,2.20
2018-01-17T01:17:02.293Z,2.20
2018-01-17T01:18:04.913Z,2.20
2018-01-17T01:19:07.467Z,2.20
2018-01-17T01:20:09.982Z,2.20
2018-01-17T01:21:12.493Z,2.20
2018-01-17T01:22:15.077Z,2.20
2018-01-17T01:23:17.641Z,2.20
2018-01-17T01:24:20.188Z,2.20
2018-01-17T01:25:23.481Z,2.20
2018-01-17T01:26:26.764Z,2.20
2018-01-17T01:27:29.325Z,2.20
2018-01-17T01:28:32.613Z,2.20
2018-01-17T01:29:35.892Z,2.20
2018-01-17T01:30:39.182Z,2.10
2018-01-17T01:31:41.701Z,2.10
2018-01-17T01:32:44.263Z,2.10
2018-01-17T01:33:46.793Z,2.20
2018-01-17T01:34:49.313Z,2.20
2018-01-17T01:35:51.833Z,2.20
2018-01-17T01:36:54.354Z,2.20
2018-01-17T01:37:56.902Z,2.20
2018-01-17T01:38:59.417Z,2.30
2018-01-17T01:40:01.941Z,2.30
2018-01-17T01:41:04.455Z,2.30
2018-01-17T01:42:06.966Z,2.30
2018-01-17T01:43:09.520Z,2.30
2018-01-17T01:44:12.866Z,2.30
2018-01-17T01:45:15.386Z,2.40
2018-01-17T01:46:17.950Z,2.30
2018-01-17T01:47:20.673Z,2.30
2018-01-17T01:48:23.212Z,2.30
2018-01-17T01:49:26.524Z,2.30
2018-01-17T01:50:29.033Z,2.30
2018-01-17T01:51:31.550Z,2.30
2018-01-17T01:52:34.064Z,2.30
2018-01-17T01:53:36.617Z,2.30
2018-01-17T01:54:39.137Z,2.30
2018-01-17T01:55:42.477Z,2.30
2018-01-17T01:56:44.986Z,2.30
2018-01-17T01:57:48.270Z,2.30
2018-01-17T01:58:50.795Z,2.30
2018-01-17T01:59:53.310Z,2.30
2018-01-17T02:00:55.853Z,2.30
2018-01-17T02:01:59.139Z,2.30
2018-01-17T02:03:02.460Z,2.30
2018-01-17T02:04:05.000Z,2.30
2018-01-17T02:05:08.283Z,2.30
2018-01-17T02:06:11.564Z,2.30
2018-01-17T02:07:14.849Z,2.30
2018-01-17T02:08:18.170Z,2.30
2018-01-17T02:09:20.771Z,2.30
2018-01-17T02:10:23.274Z,2.30
2018-01-17T02:11:26.594Z,2.30
2018-01-17T02:12:29.120Z,2.30
2018-01-17T02:13:32.406Z,2.30
2018-01-17T02:14:35.716Z,2.30
2018-01-17T02:15:38.272Z,2.30
2018-01-17T02:16:40.783Z,2.40
2018-01-17T02:17:43.302Z,2.30
2018-01-17T02:18:45.815Z,2.40
2018-01-17T02:19:48.328Z,2.30
2018-01-17T02:20:50.878Z,2.40
2018-01-17T02:21:54.215Z,2.40
2018-01-17T02:22:56.736Z,2.40
2018-01-17T02:23:59.262Z,2.40
2018-01-17T02:25:01.792Z,2.30
2018-01-17T02:26:04.308Z,2.40
2018-01-17T02:27:06.869Z,2.40
2018-01-17T02:28:09.389Z,2.40
2018-01-17T02:29:11.898Z,2.40
2018-01-17T02:30:14.409Z,2.40
2018-01-17T02:31:20.737Z,2.40
2018-01-17T02:32:24.114Z,2.40
2018-01-17T02:33:27.409Z,2.40
2018-01-17T02:34:30.688Z,2.40
2018-01-17T02:35:33.964Z,2.40
2018-01-17T02:36:36.477Z,2.40
2018-01-17T02:37:39.024Z,2.40
2018-01-17T02:38:41.532Z,2.40
2018-01-17T02:39:56.061Z,2.40
2018-01-17T02:40:58.579Z,2.40
2018-01-17T02:42:01.909Z,2.40
2018-01-17T02:43:04.423Z,2.40
2018-01-17T02:44:06.938Z,2.40
2018-01-17T02:45:09.452Z,2.40
2018-01-17T02:46:12.015Z,2.40
2018-01-17T02:47:14.549Z,2.40
2018-01-17T02:48:17.080Z,2.40
2018-01-17T02:49:19.588Z,2.40
2018-01-17T02:50:22.119Z,2.40
2018-01-17T02:51:24.690Z,2.40
2018-01-17T02:52:27.238Z,2.30
2018-01-17T02:53:30.524Z,2.40
2018-01-17T02:54:33.800Z,2.40
2018-01-17T02:55:37.077Z,2.30
2018-01-17T02:56:40.407Z,2.30
2018-01-17T02:57:42.928Z,2.40
2018-01-17T02:58:46.219Z,2.40
2018-01-17T02:59:49.497Z,2.40
2018-01-17T03:00:52.806Z,2.40
2018-01-17T03:01:55.359Z,2.40
2018-01-17T03:02:58.632Z,2.40
2018-01-17T03:04:01.913Z,2.40
2018-01-17T03:05:05.192Z,2.40
2018-01-17T03:06:08.500Z,2.40
2018-01-17T03:07:11.013Z,2.40
2018-01-17T03:08:14.293Z,2.40
2018-01-17T03:09:16.808Z,2.40
2018-01-17T03:10:20.122Z,2.40
2018-01-17T03:11:22.657Z,2.40
2018-01-17T03:12:25.960Z,2.40
2018-01-17T03:13:28.508Z,2.40
2018-01-17T03:14:31.787Z,2.40
2018-01-17T03:15:35.079Z,2.50
2018-01-17T03:16:38.361Z,2.50
2018-01-17T03:17:41.637Z,2.50
2018-01-17T03:18:44.938Z,2.50
2018-01-17T03:19:47.452Z,2.50
2018-01-17T03:20:49.965Z,2.50
2018-01-17T03:21:52.472Z,2.50
2018-01-17T03:22:54.984Z,2.50
2018-01-17T03:23:58.332Z,2.60
2018-01-17T03:25:00.855Z,2.60
2018-01-17T03:26:03.369Z,2.60
2018-01-17T03:27:05.886Z,2.60
2018-01-17T03:28:08.397Z,2.60
2018-01-17T03:29:10.941Z,2.60
2018-01-17T03:30:13.451Z,2.60
2018-01-17T03:31:16.779Z,2.60
2018-01-17T03:32:19.291Z,2.60
2018-01-17T03:33:21.810Z,2.60
2018-01-17T03:34:24.361Z,2.60
2018-01-17T03:35:26.882Z,2.60
2018-01-17T03:36:29.397Z,2.60
2018-01-17T03:37:31.915Z,2.60
2018-01-17T03:38:34.428Z,2.60
2018-01-17T03:39:36.968Z,2.70
2018-01-17T03:40:40.278Z,2.70
2018-01-17T03:41:42.792Z,2.70
2018-01-17T03:42:45.306Z,2.70
2018-01-17T03:43:47.853Z,2.70
2018-01-17T03:44:51.137Z,2.70
2018-01-17T03:45:54.420Z,2.60
2018-01-17T03:46:57.704Z,2.60
2018-01-17T03:48:00.996Z,2.60
2018-01-17T03:49:04.300Z,2.60
2018-01-17T03:50:06.845Z,2.60
2018-01-17T03:51:10.121Z,2.70
2018-01-17T03:52:13.412Z,2.70
2018-01-17T03:53:16.700Z,2.70
2018-01-17T03:54:19.230Z,2.60
2018-01-17T03:55:21.765Z,2.70
2018-01-17T03:56:24.272Z,2.60
2018-01-17T03:57:26.792Z,2.60
2018-01-17T03:58:29.337Z,2.60
2018-01-17T03:59:31.950Z,2.60
2018-01-17T04:00:34.511Z,2.60
2018-01-17T04:01:37.055Z,2.50
2018-01-17T04:02:39.566Z,2.60
2018-01-17T04:03:42.852Z,2.50
2018-01-17T04:04:45.383Z,2.50
2018-01-17T04:05:47.928Z,2.50
2018-01-17T04:06:50.496Z,2.50
2018-01-17T04:07:53.025Z,2.50
2018-01-17T04:08:55.580Z,2.40
2018-01-17T04:09:58.096Z,2.40
2018-01-17T04:11:00.627Z,2.40
2018-01-17T04:12:03.189Z,2.40
2018-01-17T04:13:06.477Z,2.30
2018-01-17T04:14:09.752Z,2.30
2018-01-17T04:15:12.272Z,2.30
2018-01-17T04:16:14.785Z,2.20
2018-01-17T04:17:17.337Z,2.20
2018-01-17T04:18:19.850Z,2.20
2018-01-17T04:19:22.363Z,2.20
2018-01-17T04:20:24.875Z,2.20
2018-01-17T04:21:27.449Z,2.20
2018-01-17T04:22:30.724Z,2.10
2018-01-17T04:23:33.246Z,2.10
2018-01-17T04:24:35.796Z,2.10
2018-01-17T04:25:38.329Z,2.10
2018-01-17T04:26:40.883Z,2.00
2018-01-17T04:27:44.188Z,2.00
2018-01-17T04:28:46.692Z,2.00
2018-01-17T04:29:49.204Z,2.00
2018-01-17T04:30:51.731Z,2.00
2018-01-17T04:31:54.267Z,2.00
2018-01-17T04:32:56.808Z,2.00
2018-01-17T04:33:59.349Z,2.00
2018-01-17T04:35:02.626Z,1.90
2018-01-17T04:36:05.175Z,1.90
2018-01-17T04:37:07.690Z,1.90
2018-01-17T04:38:10.279Z,1.80
2018-01-17T04:39:12.800Z,1.80
2018-01-17T04:40:16.080Z,1.80
2018-01-17T04:41:19.384Z,1.80
2018-01-17T04:42:21.901Z,1.70
2018-01-17T04:43:24.526Z,1.70
2018-01-17T04:44:27.034Z,1.70
2018-01-17T04:45:29.554Z,1.70
2018-01-17T04:46:32.080Z,1.70
2018-01-17T04:47:34.620Z,1.70
2018-01-17T04:48:37.173Z,1.60
2018-01-17T04:49:39.692Z,1.60
2018-01-17T04:50:43.108Z,1.60
2018-01-17T04:51:45.631Z,1.60
2018-01-17T04:52:48.153Z,1.60
2018-01-17T04:53:50.656Z,1.60
2018-01-17T04:54:53.166Z,1.50
2018-01-17T04:55:55.717Z,1.50
2018-01-17T04:56:58.995Z,1.50
2018-01-17T04:58:02.281Z,1.50
2018-01-17T04:59:05.593Z,1.50
2018-01-17T05:00:08.105Z,1.60
2018-01-17T05:01:10.625Z,1.50
2018-01-17T05:02:13.167Z,1.50
2018-01-17T05:03:16.463Z,1.50
2018-01-17T05:04:18.982Z,1.50
2018-01-17T05:05:21.495Z,1.60
2018-01-17T05:06:24.021Z,1.60
2018-01-17T05:07:26.589Z,1.60
2018-01-17T05:08:29.099Z,1.60
2018-01-17T05:09:31.612Z,1.60
2018-01-17T05:10:34.126Z,1.70
2018-01-17T05:11:36.642Z,1.70
2018-01-17T05:12:39.203Z,1.70
2018-01-17T05:13:41.888Z,1.70
2018-01-17T05:14:44.405Z,1.60
2018-01-17T05:15:46.915Z,1.60
2018-01-17T05:16:49.424Z,1.70
2018-01-17T05:17:51.982Z,1.70
2018-01-17T05:18:54.500Z,1.60
2018-01-17T05:19:57.011Z,1.60
2018-01-17T05:20:59.742Z,1.60
2018-01-17T05:22:02.273Z,1.60
2018-01-17T05:23:04.833Z,1.60
2018-01-17T05:24:07.368Z,1.60
2018-01-17T05:25:10.644Z,1.60
2018-01-17T05:26:13.159Z,1.60
2018-01-17T05:27:15.668Z,1.60
2018-01-17T05:28:18.227Z,1.60
2018-01-17T05:29:20.740Z,1.60
2018-01-17T05:30:23.253Z,1.60
2018-01-17T05:31:25.760Z,1.70
2018-01-17T05:32:28.267Z,1.70
2018-01-17T05:33:30.837Z,1.70
2018-01-17T05:34:33.355Z,1.70
2018-01-17T05:35:36.757Z,1.70
2018-01-17T05:36:39.274Z,1.70
2018-01-17T05:37:41.814Z,1.80
2018-01-17T05:38:44.448Z,1.80
2018-01-17T05:39:46.963Z,1.80
2018-01-17T05:40:49.470Z,1.80
2018-01-17T05:41:52.766Z,1.80
2018-01-17T05:42:55.276Z,1.80
2018-01-17T05:43:57.819Z,1.80
2018-01-17T05:45:00.329Z,1.80
2018-01-17T05:46:02.845Z,1.80
2018-01-17T05:47:05.356Z,1.80
2018-01-17T05:48:07.907Z,1.80
2018-01-17T05:49:10.441Z,1.70
2018-01-17T05:50:12.991Z,1.80
2018-01-17T05:51:15.540Z,1.70
2018-01-17T05:52:18.813Z,1.70
2018-01-17T05:53:21.327Z,1.70
2018-01-17T05:54:23.841Z,1.80
2018-01-17T05:55:26.376Z,1.80
2018-01-17T05:56:28.897Z,1.90
2018-01-17T05:57:31.399Z,1.90
2018-01-17T05:58:34.761Z,1.90
2018-01-17T05:59:37.421Z,1.90
2018-01-17T06:00:39.956Z,1.90
2018-01-17T06:01:42.466Z,1.90
2018-01-17T06:02:44.987Z,1.90
2018-01-17T06:03:47.510Z,1.90
2018-01-17T06:04:50.028Z,1.90
2018-01-17T06:05:53.336Z,1.90
2018-01-17T06:06:55.880Z,1.90
2018-01-17T06:07:59.164Z,2.00
2018-01-17T06:09:02.480Z,2.00
2018-01-17T06:10:04.984Z,1.90
2018-01-17T06:11:07.492Z,2.00
2018-01-17T06:12:10.009Z,2.00
2018-01-17T06:13:12.512Z,2.00
2018-01-17T06:14:15.816Z,2.00
2018-01-17T06:15:18.342Z,1.90
2018-01-17T06:16:20.849Z,1.90
2018-01-17T06:17:23.390Z,2.00
2018-01-17T06:18:26.672Z,1.90
2018-01-17T06:19:29.989Z,1.90
2018-01-17T06:20:32.509Z,1.90
2018-01-17T06:21:35.021Z,2.00
2018-01-17T06:22:37.530Z,2.00
2018-01-17T06:23:40.049Z,2.10
2018-01-17T06:24:42.590Z,2.10
2018-01-17T06:25:45.859Z,2.10
2018-01-17T06:26:48.370Z,2.00
2018-01-17T06:27:51.127Z,2.10
2018-01-17T06:28:53.649Z,2.10
2018-01-17T06:29:56.181Z,2.00
2018-01-17T06:30:58.781Z,2.00
2018-01-17T06:32:01.292Z,2.00
2018-01-17T06:33:03.844Z,2.00
2018-01-17T06:34:07.121Z,2.00
2018-01-17T06:35:10.396Z,2.00
2018-01-17T06:36:12.916Z,2.00
2018-01-17T06:37:15.429Z,2.10
2018-01-17T06:38:18.740Z,2.00
2018-01-17T06:39:21.281Z,2.00
2018-01-17T06:40:24.561Z,2.10
2018-01-17T06:41:27.077Z,2.00
2018-01-17T06:42:29.594Z,2.10
2018-01-17T06:43:32.110Z,2.10
2018-01-17T06:44:34.639Z,2.10
2018-01-17T06:45:37.914Z,2.10
2018-01-17T06:46:41.201Z,2.10
2018-01-17T06:47:44.474Z,2.10
2018-01-17T06:48:46.979Z,2.00
2018-01-17T06:49:49.518Z,2.10
2018-01-17T06:50:52.788Z,2.10
2018-01-17T06:51:55.307Z,2.00
2018-01-17T06:52:57.846Z,2.10
2018-01-17T06:54:01.177Z,2.00
2018-01-17T06:55:03.688Z,2.00
2018-01-17T06:56:06.967Z,2.10
2018-01-17T06:57:10.237Z,2.10
2018-01-17T06:58:12.743Z,2.10
2018-01-17T06:59:15.312Z,2.10
2018-01-17T07:00:17.837Z,2.00
2018-01-17T07:01:20.344Z,2.10
2018-01-17T07:02:22.868Z,2.00
2018-01-17T07:03:25.380Z,2.00
2018-01-17T07:04:27.921Z,2.00
2018-01-17T07:05:31.195Z,2.00
2018-01-17T07:06:34.472Z,2.00
2018-01-17T07:07:37.768Z,2.00
2018-01-17T07:08:41.049Z,2.00
2018-01-17T07:09:44.371Z,2.00
2018-01-17T07:10:46.881Z,2.00
2018-01-17T07:11:49.388Z,2.00
2018-01-17T07:12:51.952Z,2.00
2018-01-17T07:13:54.496Z,2.00
2018-01-17T07:14:57.805Z,2.00
2018-01-17T07:16:00.322Z,2.00
2018-01-17T07:17:02.840Z,2.00
2018-01-17T07:18:05.358Z,2.00
2018-01-17T07:19:07.913Z,2.00
2018-01-17T07:20:10.437Z,2.00
2018-01-17T07:21:12.945Z,2.00
2018-01-17T07:22:15.471Z,2.00
2018-01-17T07:23:17.972Z,2.00
2018-01-17T07:24:20.526Z,2.00
2018-01-17T07:25:23.036Z,2.00
2018-01-17T07:26:26.322Z,2.10
2018-01-17T07:27:29.693Z,2.10
2018-01-17T07:28:32.189Z,2.00
2018-01-17T07:29:34.709Z,2.00
2018-01-17T07:30:37.225Z,2.00
2018-01-17T07:31:39.738Z,2.00
2018-01-17T07:32:42.297Z,2.10
2018-01-17T07:33:44.812Z,2.00
2018-01-17T07:34:48.081Z,2.10
2018-01-17T07:35:51.372Z,2.10
2018-01-17T07:36:54.661Z,2.10
2018-01-17T07:37:57.221Z,2.10
2018-01-17T07:39:00.545Z,2.10
2018-01-17T07:40:03.069Z,2.10
2018-01-17T07:41:06.352Z,2.10
2018-01-17T07:42:09.641Z,2.10
2018-01-17T07:43:12.917Z,2.20
2018-01-17T07:44:16.329Z,2.20
2018-01-17T07:45:18.880Z,2.10
2018-01-17T07:46:22.156Z,2.20
2018-01-17T07:47:25.425Z,2.20
2018-01-17T07:48:27.937Z,2.20
2018-01-17T07:49:30.483Z,2.20
2018-01-17T07:50:33.003Z,2.20
2018-01-17T07:51:35.517Z,2.20
2018-01-17T07:52:38.028Z,2.30
2018-01-17T07:53:40.545Z,2.30
2018-01-17T07:54:43.089Z,2.30
2018-01-17T07:55:45.597Z,2.30
2018-01-17T07:56:48.148Z,2.30
2018-01-17T07:57:51.144Z,2.30
2018-01-17T07:58:53.665Z,2.40
2018-01-17T07:59:56.973Z,2.40
2018-01-17T08:00:59.606Z,2.30
2018-01-17T08:02:02.152Z,2.30
2018-01-17T08:03:04.669Z,2.40
2018-01-17T08:04:07.177Z,2.40
2018-01-17T08:05:09.692Z,2.40
2018-01-17T08:06:12.963Z,2.40
2018-01-17T08:07:16.272Z,2.40
2018-01-17T08:08:18.784Z,2.40
2018-01-17T08:09:21.312Z,2.40
2018-01-17T08:10:23.828Z,2.40
2018-01-17T08:11:26.344Z,2.40
2018-01-17T08:12:28.881Z,2.40
2018-01-17T08:13:32.153Z,2.40
2018-01-17T08:14:34.672Z,2.40
2018-01-17T08:15:37.185Z,2.40
2018-01-17T08:16:39.749Z,2.40
2018-01-17T08:17:42.273Z,2.40
2018-01-17T08:18:44.790Z,2.50
2018-01-17T08:19:48.122Z,2.50
2018-01-17T08:20:50.629Z,2.50
2018-01-17T08:21:53.149Z,2.50
2018-01-17T08:22:55.660Z,2.50
2018-01-17T08:23:58.167Z,2.50
2018-01-17T08:25:00.716Z,2.50
2018-01-17T08:26:03.988Z,2.40
2018-01-17T08:27:07.274Z,2.40
2018-01-17T08:28:10.545Z,2.40
2018-01-17T08:29:13.104Z,2.40
2018-01-17T08:30:15.618Z,2.50
2018-01-17T08:31:18.134Z,2.50
2018-01-17T08:32:20.650Z,2.50
2018-01-17T08:33:23.161Z,2.50
2018-01-17T08:34:25.726Z,2.50
2018-01-17T08:35:28.245Z,2.50
2018-01-17T08:36:30.762Z,2.40
2018-01-17T08:37:33.285Z,2.40
2018-01-17T08:38:35.796Z,2.40
2018-01-17T08:39:38.377Z,2.40
2018-01-17T08:40:41.709Z,2.40
2018-01-17T08:41:44.212Z,2.40
2018-01-17T08:42:46.720Z,2.40
2018-01-17T08:43:49.236Z,2.40
2018-01-17T08:44:51.776Z,2.50
2018-01-17T08:45:54.282Z,2.50
2018-01-17T08:46:56.796Z,2.50
2018-01-17T08:47:59.301Z,2.50
2018-01-17T08:49:01.855Z,2.50
2018-01-17T08:50:04.377Z,2.50
2018-01-17T08:51:06.892Z,2.50
2018-01-17T08:52:09.392Z,2.50
2018-01-17T08:53:12.673Z,2.50
2018-01-17T08:54:15.989Z,2.50
2018-01-17T08:55:18.501Z,2.50
2018-01-17T08:56:21.044Z,2.50
2018-01-17T08:57:23.552Z,2.50
2018-01-17T08:58:26.916Z,2.50
2018-01-17T08:59:29.468Z,2.50
2018-01-17T09:00:31.988Z,2.50
2018-01-17T09:01:34.509Z,2.50
2018-01-17T09:02:37.049Z,2.50
2018-01-17T09:03:39.561Z,2.50
2018-01-17T09:04:42.081Z,2.50
2018-01-17T09:05:44.600Z,2.50
2018-01-17T09:06:47.877Z,2.50
2018-01-17T09:07:51.298Z,2.50
2018-01-17T09:08:53.864Z,2.50
2018-01-17T09:09:56.372Z,2.50
2018-01-17T09:10:59.646Z,2.50
2018-01-17T09:12:02.226Z,2.50
2018-01-17T09:13:04.750Z,2.50
2018-01-17T09:14:07.265Z,2.50
2018-01-17T09:15:09.779Z,2.50
2018-01-17T09:16:12.289Z,2.50
2018-01-17T09:17:14.840Z,2.50
2018-01-17T09:18:17.357Z,2.60
2018-01-17T09:19:20.642Z,2.60
2018-01-17T09:20:23.925Z,2.60
2018-01-17T09:21:27.215Z,2.60
2018-01-17T09:22:29.756Z,2.60
2018-01-17T09:23:32.276Z,2.60
2018-01-17T09:24:34.796Z,2.70
2018-01-17T09:25:38.085Z,2.70
2018-01-17T09:26:41.405Z,2.70
2018-01-17T09:27:43.925Z,2.70
2018-01-17T09:28:47.212Z,2.70
2018-01-17T09:29:50.493Z,2.70
2018-01-17T09:30:53.773Z,2.70
2018-01-17T09:31:56.325Z,2.70
2018-01-17T09:32:58.828Z,2.70
2018-01-17T09:34:01.361Z,2.70
2018-01-17T09:35:03.882Z,2.70
2018-01-17T09:36:06.389Z,2.70
2018-01-17T09:37:08.928Z,2.70
2018-01-17T09:38:11.439Z,2.70
2018-01-17T09:39:14.757Z,2.60
2018-01-17T09:40:17.278Z,2.60
2018-01-17T09:41:19.794Z,2.70
2018-01-17T09:42:22.305Z,2.70
2018-01-17T09:43:24.850Z,2.70
2018-01-17T09:44:27.369Z,2.70
2018-01-17T09:45:29.891Z,2.70
2018-01-17T09:46:32.455Z,2.80
2018-01-17T09:47:34.972Z,2.70
2018-01-17T09:48:37.491Z,2.70
2018-01-17T09:49:40.011Z,2.70
2018-01-17T09:50:42.577Z,2.70
2018-01-17T09:51:45.108Z,2.70
2018-01-17T09:52:47.620Z,2.70
2018-01-17T09:53:50.266Z,2.60
2018-01-17T09:54:52.772Z,2.70
2018-01-17T09:55:55.304Z,2.70
2018-01-17T09:56:57.832Z,2.60
2018-01-17T09:58:00.344Z,2.70
2018-01-17T09:59:02.892Z,2.60
2018-01-17T10:00:06.167Z,2.70
2018-01-17T10:01:08.718Z,2.60
2018-01-17T10:02:11.238Z,2.70
2018-01-17T10:03:13.787Z,2.70
2018-01-17T10:04:16.297Z,2.70
2018-01-17T10:05:18.812Z,2.60
2018-01-17T10:06:21.369Z,2.70
2018-01-17T10:07:24.657Z,2.70
2018-01-17T10:08:27.185Z,2.70
2018-01-17T10:09:29.696Z,2.70
2018-01-17T10:10:32.202Z,2.80
2018-01-17T10:11:34.745Z,2.80
2018-01-17T10:12:37.289Z,2.90
2018-01-17T10:13:39.803Z,2.90
2018-01-17T10:14:42.321Z,2.90
2018-01-17T10:15:44.829Z,2.90
2018-01-17T10:16:47.380Z,2.80
2018-01-17T10:17:49.889Z,2.80
2018-01-17T10:18:52.557Z,2.90
2018-01-17T10:19:55.076Z,2.80
2018-01-17T10:20:57.584Z,2.90
2018-01-17T10:22:00.114Z,2.80
2018-01-17T10:23:02.621Z,2.80
2018-01-17T10:24:05.174Z,2.80
2018-01-17T10:25:07.689Z,2.90
2018-01-17T10:26:10.212Z,3.00
2018-01-17T10:27:12.758Z,3.00
2018-01-17T10:28:16.048Z,2.90
2018-01-17T10:29:18.558Z,2.90
2018-01-17T10:30:21.126Z,2.90
2018-01-17T10:31:23.640Z,2.80
2018-01-17T10:32:26.161Z,2.80
2018-01-17T10:33:28.668Z,2.80
2018-01-17T10:34:31.184Z,2.80
2018-01-17T10:35:34.485Z,2.80
2018-01-17T10:36:36.992Z,2.80
2018-01-17T10:37:39.501Z,2.90
2018-01-17T10:38:42.023Z,2.90
2018-01-17T10:39:44.537Z,2.90
2018-01-17T10:40:47.081Z,2.80
2018-01-17T10:41:50.361Z,2.70
2018-01-17T10:42:52.909Z,2.70
2018-01-17T10:43:55.424Z,2.60
2018-01-17T10:44:57.967Z,2.50
2018-01-17T10:46:01.244Z,2.30
2018-01-17T10:47:03.755Z,2.30
2018-01-17T10:48:06.268Z,2.20
2018-01-17T10:49:08.784Z,2.10
2018-01-17T10:50:11.332Z,2.10
2018-01-17T10:51:13.850Z,2.00
2018-01-17T10:52:16.416Z,2.00
2018-01-17T10:53:18.926Z,1.90
2018-01-17T10:54:21.446Z,1.90
2018-01-17T10:55:24.722Z,1.90
2018-01-17T10:56:27.248Z,1.90
2018-01-17T10:57:29.790Z,1.90
2018-01-17T10:58:33.091Z,1.90
2018-01-17T10:59:35.624Z,1.90
2018-01-17T11:00:43.926Z,1.90
2018-01-17T11:01:46.445Z,1.90
2018-01-17T11:02:49.014Z,1.90
2018-01-17T11:03:51.522Z,1.90
2018-01-17T11:04:54.096Z,1.90
2018-01-17T11:05:56.618Z,1.90
2018-01-17T11:06:59.132Z,1.90
2018-01-17T11:08:02.469Z,1.90
2018-01-17T11:09:04.977Z,1.90
2018-01-17T11:10:07.491Z,1.90
2018-01-17T11:11:10.053Z,1.80
2018-01-17T11:12:12.570Z,1.80
2018-01-17T11:13:15.120Z,1.80
2018-01-17T11:14:17.632Z,1.80
2018-01-17T11:15:20.138Z,1.80
2018-01-17T11:16:22.660Z,1.80
2018-01-17T11:17:25.976Z,1.80
2018-01-17T11:18:28.496Z,1.80
2018-01-17T11:19:31.796Z,1.80
2018-01-17T11:20:35.078Z,1.80
2018-01-17T11:21:37.590Z,1.80
2018-01-17T11:22:40.113Z,1.80
2018-01-17T11:23:42.620Z,1.80
2018-01-17T11:24:45.171Z,1.90
2018-01-17T11:25:47.681Z,1.90
2018-01-17T11:26:50.227Z,1.90
2018-01-17T11:27:52.736Z,1.90
2018-01-17T11:28:56.177Z,2.00
2018-01-17T11:29:58.734Z,2.00
2018-01-17T11:31:01.249Z,2.00
2018-01-17T11:32:04.527Z,2.00
2018-01-17T11:33:07.813Z,2.10
2018-01-17T11:34:11.104Z,2.10
2018-01-17T11:35:14.413Z,2.10
2018-01-17T11:36:16.920Z,2.10
2018-01-17T11:37:19.428Z,2.20
2018-01-17T11:38:22.704Z,2.30
2018-01-17T11:39:26.021Z,2.30
2018-01-17T11:40:28.544Z,2.30
2018-01-17T11:41:31.825Z,2.40
2018-01-17T11:42:35.157Z,2.40
2018-01-17T11:43:37.664Z,2.40
2018-01-17T11:44:40.172Z,2.50
2018-01-17T11:45:42.685Z,2.60
2018-01-17T11:46:45.206Z,2.60
2018-01-17T11:47:47.764Z,2.60
2018-01-17T11:48:50.274Z,2.60
2018-01-17T11:49:52.792Z,2.60
2018-01-17T11:50:55.307Z,2.60
2018-01-17T11:51:57.811Z,2.60
2018-01-17T11:53:01.122Z,2.70
2018-01-17T11:54:03.639Z,2.70
2018-01-17T11:55:06.176Z,2.70
2018-01-17T11:56:08.696Z,2.70
2018-01-17T11:57:11.972Z,2.70
2018-01-17T11:58:15.288Z,2.70
2018-01-17T11:59:17.801Z,2.70
2018-01-17T12:00:20.325Z,2.70
2018-01-17T12:01:22.825Z,2.60
2018-01-17T12:02:25.337Z,2.70
2018-01-17T12:03:27.891Z,2.70
2018-01-17T12:04:31.174Z,2.60
2018-01-17T12:05:34.448Z,2.60
2018-01-17T12:06:37.735Z,2.60
2018-01-17T12:07:41.029Z,2.70
2018-01-17T12:08:44.357Z,2.70
2018-01-17T12:09:46.893Z,2.70
2018-01-17T12:10:49.415Z,2.80
2018-01-17T12:11:51.927Z,2.80
2018-01-17T12:12:54.444Z,2.90
2018-01-17T12:13:57.191Z,3.00
2018-01-17T12:14:59.700Z,3.10
2018-01-17T12:16:02.982Z,3.20
2018-01-17T12:17:06.268Z,3.20
2018-01-17T12:18:09.681Z,3.50
2018-01-17T12:19:12.224Z,3.40
2018-01-17T12:20:15.500Z,4.10
2018-01-17T12:21:18.769Z,4.30
2018-01-17T12:22:21.297Z,4.30
2018-01-17T12:23:24.578Z,4.90
2018-01-17T12:24:27.116Z,4.90
2018-01-17T12:25:30.420Z,5.60
2018-01-17T12:26:32.981Z,5.60
2018-01-17T12:27:35.514Z,5.80
2018-01-17T12:28:38.797Z,5.50
2018-01-17T12:29:42.104Z,5.30
2018-01-17T12:30:44.625Z,5.30
2018-01-17T12:31:47.141Z,5.00
2018-01-17T12:32:49.653Z,4.80
2018-01-17T12:33:52.336Z,4.60
2018-01-17T12:34:54.862Z,4.40
2018-01-17T12:35:57.540Z,4.30
2018-01-17T12:37:00.072Z,4.10
2018-01-17T12:38:02.646Z,4.10
2018-01-17T12:39:05.186Z,4.10
2018-01-17T12:40:08.458Z,4.30
2018-01-17T12:41:10.985Z,4.30
2018-01-17T12:42:13.521Z,4.60
2018-01-17T12:43:16.064Z,4.90
2018-01-17T12:44:19.347Z,5.50
2018-01-17T12:45:22.668Z,5.60
2018-01-17T12:46:25.200Z,5.60
2018-01-17T12:47:28.474Z,5.60
2018-01-17T12:48:30.989Z,5.60
2018-01-17T12:49:33.500Z,5.50
2018-01-17T12:50:36.037Z,5.10
2018-01-17T12:51:38.557Z,5.00
2018-01-17T12:52:41.828Z,5.10
2018-01-17T12:53:45.103Z,5.00
2018-01-17T12:54:47.617Z,4.90
2018-01-17T12:55:50.157Z,4.90
2018-01-17T12:56:53.464Z,4.60
2018-01-17T12:57:55.984Z,4.60
2018-01-17T12:58:58.496Z,4.60
2018-01-17T13:00:01.005Z,4.70
2018-01-17T13:01:03.536Z,4.70
2018-01-17T13:02:06.068Z,4.50
2018-01-17T13:03:09.472Z,4.80
2018-01-17T13:04:11.984Z,4.80
2018-01-17T13:05:14.504Z,4.80
2018-01-17T13:06:17.067Z,4.70
2018-01-17T13:07:19.585Z,4.70
2018-01-17T13:08:22.132Z,4.60
2018-01-17T13:09:24.645Z,4.50
2018-01-17T13:10:27.917Z,4.50
2018-01-17T13:11:30.428Z,4.50
2018-01-17T13:12:32.939Z,4.40
2018-01-17T13:13:35.488Z,4.40
2018-01-17T13:14:37.992Z,4.40
2018-01-17T13:15:41.274Z,4.50
2018-01-17T13:16:44.585Z,4.50
2018-01-17T13:17:47.100Z,4.50
2018-01-17T13:18:49.613Z,4.50
2018-01-17T13:19:52.127Z,4.30
2018-01-17T13:20:54.630Z,4.30
2018-01-17T13:21:57.937Z,4.00
2018-01-17T13:23:00.481Z,4.00
2018-01-17T13:24:03.756Z,3.90
2018-01-17T13:25:07.039Z,3.90
2018-01-17T13:26:10.307Z,3.70
2018-01-17T13:27:12.820Z,3.70
2018-01-17T13:28:15.360Z,3.70
2018-01-17T13:29:18.629Z,3.60
2018-01-17T13:30:21.908Z,3.60
2018-01-17T13:31:24.425Z,3.60
2018-01-17T13:32:26.928Z,3.60
2018-01-17T13:33:29.481Z,3.60
2018-01-17T13:34:31.998Z,3.60
2018-01-17T13:35:34.520Z,3.60
2018-01-17T13:36:37.038Z,3.50
2018-01-17T13:37:39.552Z,3.60
2018-01-17T13:38:42.106Z,3.50
2018-01-17T13:39:44.737Z,3.50
2018-01-17T13:40:47.264Z,3.50
2018-01-17T13:41:49.785Z,3.50
2018-01-17T13:42:52.300Z,3.50
2018-01-17T13:43:54.866Z,3.60
2018-01-17T13:44:57.412Z,3.60
2018-01-17T13:45:59.942Z,3.60
2018-01-17T13:47:02.597Z,3.60
2018-01-17T13:48:05.133Z,3.60
2018-01-17T13:49:07.703Z,3.60
2018-01-17T13:50:10.173Z,3.60
2018-01-17T13:51:13.450Z,3.40
2018-01-17T13:52:16.729Z,3.40
2018-01-17T13:53:19.274Z,3.40
2018-01-17T13:54:21.780Z,3.30
2018-01-17T13:55:25.066Z,3.20